Alvaraes, Brazil
Current Conditions -  °F | °C
As of 10:00 AM on Friday 28 Nov 2014 (Local Time) from SBUY Reporting Station
Broken Clouds Broken Clouds  
Wind Chill: 84°   Ceiling: 10000
Heat Index: 90°   Visibility: 6mi
Dew Point: 72°   Wind: 0mph
Humidity: 66%   Direction: NA
Pressure: 29.88"   Gusts: NA
Location:  3.2°S, 64.82°W
Report Text: SBUY 281400Z 00000KT 9999 FEW018 BKN100 29/22 Q1012
Loading
Personal Weather Stations






























Interactive Weather Map New forecast layout! Learn more

10-Day Weather Forecast

Advertisements
Track Severe Weather on mobile